默认 日期 大小 文件数 浏览量 最新下载 xml
01 dead磁力链接相关资源由用户搜索指令自动获取,结果来源于网络,本站不存储任何资料,亦不承担任何责任,请于24小时内删除,搜索到812个磁力,用时18ms。
    {"1-18 info.txt": 547, "2020-01-18.mp4": 5983397293, "2020-01-18.mp4.md5": 50, "deadco2020-01-16.jpg": 134792, "2020-01-18-setlist.jpg": 65404, "ITS20_MainHeader_02-hr.jpg": 5018889, "playing-in-the-sand-2020-webcast-696x524.png": 588375}
创建时间: 2020-01-29 21:41:23 大小:5.58 GB 文件数量:7 热度:2 最近下载:2022-04-13 05:45:59
    ... flac": 45127072, "deadco200116 - 01 Not Fade Away.flac": ... flac": 49550305, "Dead & Company 2020-01-16 Moon Palace Resort ... , Riviera Cancun, Mexico [1644].ffp": 1246, "Dead ... & Company 2020-01-16 Moon Palace Resort ...
创建时间: 2020-01-30 05:14:11 大小:937.82 MB 文件数量:26 热度:8 最近下载:2025-02-18 19:27:02
    ... avi": 524339200, "Ash.vs.Evil.Dead.S01E02.XviD.Goblin.[qqss44].avi ... ": 367988736, "Ash.vs.Evil.Dead.S01E03.XviD.Goblin.[qqss44].avi ... ": 349990912, "Ash.vs.Evil.Dead.S01E04.XviD.Goblin.[qqss44].avi ... ": 349949952, "Ash.vs.Evil.Dead.S01E05.XviD.Goblin.[qqss44].avi ...
创建时间: 2020-01-30 13:57:11 大小:3.5 GB 文件数量:10 热度:4 最近下载:2025-01-02 02:26:03
    ... , "(The Walking Dead).jpg": 26391, "The.Walking.Dead.S04E01.HDTV.XviD ... avi": 363202876, "The.Walking.Dead.S04E07.PROPER.HDTV.XviD-AFG ... avi": 368731864, "The.Walking.Dead.S04E12.PROPER.HDTV.XviD-AFG ... avi": 362952616, "The.Walking.Dead.S04E14.PROPER.HDTV.XviD-AFG ...
创建时间: 2020-01-31 21:57:38 大小:5.43 GB 文件数量:34 热度:2 最近下载:2024-10-06 07:37:01
    {"ohrly.nfo": 7157, "file_id.diz": 257, "RARBG.com.txt": 34, "RARBG.COM_XXX_BANNER.jpg": 517081, "023bf2dd2bb2187ba0df39203ab579f2.jpg": 236550, "0a08744c443417b17c4c5631f528651e.jpg": 267943, "1164588e849c0f18363a9b94bb12e25e.jpg": 221091, " ...
创建时间: 2020-02-01 23:52:44 大小:13.55 MB 文件数量:62 热度:4 最近下载:2025-07-29 10:23:03
    {"The.Dead.Lands.S01E01.WEB-DLRip.400p.IdeaFilm.avi": 559427584, "The.Dead.Lands.S01E02.WEB-DLRip.400p.IdeaFilm.avi": 582598656, "The.Dead.Lands.S01E03.WEB-DLRip.400p.IdeaFilm.avi": 595038208}
创建时间: 2020-02-03 20:15:16 大小:1.62 GB 文件数量:3 热度:2 最近下载:2022-04-14 05:43:27
    ... 尸吗OF THE DEAD][第二季][01][1280x720][简体 ...
创建时间: 2020-02-06 08:19:02 大小:277.58 MB 文件数量:7 热度:14 最近下载:2025-07-29 20:34:02
    {"The.Dead.Lands.S01E01.WEB-DLRip.400p.IdeaFilm.avi": 559427584, "The.Dead.Lands.S01E02.WEB-DLRip.400p.IdeaFilm.avi": 582598656, "The.Dead.Lands.S01E03.WEB-DLRip.400p.IdeaFilm.avi": 595038208, "The.Dead.Lands.S01E04.WEB-DLRip.400p.IdeaFilm.avi": 561491968}
创建时间: 2020-02-08 19:58:02 大小:2.14 GB 文件数量:4 热度:3 最近下载:2023-12-24 11:06:02
    {"KlumpMolch_DoA_3Desu000.jpg": 436275, "KlumpMolch_DoA_3Desu001.png": 16384, "KlumpMolch_DoA_3Desu002.jpg": 45073, "KlumpMolch_DoA_3Desu003.jpg": 191168, "KlumpMolch_DoA_3Desu004.jpg": 160817, "KlumpMolch_DoA_3Desu005.jpg": 169827, " ...
创建时间: 2020-02-20 19:14:18 大小:33.05 MB 文件数量:182 热度:23 最近下载:2025-10-10 09:37:03
    {"Iratus.Lord.of.the.Dead.Early.Access.v162.01.Multi.11.part1.rar": 1048576000, "Iratus.Lord.of.the.Dead.Early.Access.v162.01.Multi.11.part2.rar": 6302942}
创建时间: 2020-02-21 01:59:17 大小:1006.01 MB 文件数量:2 热度:2 最近下载:2023-12-25 06:36:04
    ... .IdeaFilm.avi": 559427584, "The.Dead.Lands.S01E02.WEB-DLRip.400p ... .IdeaFilm.avi": 582598656, "The.Dead.Lands.S01E03.WEB-DLRip.400p ... .IdeaFilm.avi": 595038208, "The.Dead.Lands.S01E04.WEB-DLRip.400p ... .IdeaFilm.avi": 561491968, "The.Dead.Lands.S01E05.WEB-DLRip.400p ...
创建时间: 2020-02-21 18:33:11 大小:2.66 GB 文件数量:5 热度:3 最近下载:2024-12-16 19:27:02
    ... .IdeaFilm.avi": 559427584, "The.Dead.Lands.S01E02.WEB-DLRip.400p ... .IdeaFilm.avi": 582598656, "The.Dead.Lands.S01E03.WEB-DLRip.400p ... .IdeaFilm.avi": 595038208, "The.Dead.Lands.S01E04.WEB-DLRip.400p ... .IdeaFilm.avi": 561491968, "The.Dead.Lands.S01E05.WEB-DLRip.400p ...
创建时间: 2020-02-22 20:53:48 大小:3.17 GB 文件数量:6 热度:3 最近下载:2023-12-25 12:19:05
    ... 174, "[DMG][HIGHSCHOOL OF THE DEAD][01][848x480][BIG5].rmvb": 153602212, ... "[DMG][HIGHSCHOOL OF THE DEAD][02V2][848x480][BIG5].rmvb": ... "[DMG][HIGHSCHOOL OF THE DEAD][03V2][848x480][BIG5].rmvb": ... "[DMG][HIGHSCHOOL OF THE DEAD][04V2][848x480][BIG5].rmvb": ...
创建时间: 2020-02-28 17:45:18 大小:1.46 GB 文件数量:15 热度:4 最近下载:2023-12-26 06:46:04
    {"01.jpg": 332317, "02.jpg": 211830, " ...
创建时间: 2020-02-29 22:12:51 大小:11.1 MB 文件数量:31 热度:5 最近下载:2025-09-02 23:51:02
    ... .IdeaFilm.avi": 559427584, "The.Dead.Lands.S01E02.WEB-DLRip.400p ... .IdeaFilm.avi": 582598656, "The.Dead.Lands.S01E03.WEB-DLRip.400p ... .IdeaFilm.avi": 595038208, "The.Dead.Lands.S01E04.WEB-DLRip.400p ... .IdeaFilm.avi": 561491968, "The.Dead.Lands.S01E05.WEB-DLRip.400p ...
创建时间: 2020-03-01 16:28:44 大小:3.71 GB 文件数量:7 热度:4 最近下载:2025-02-25 17:49:02
    {"Forced to Kill - Emmy Ellis.pdf": 553553, "Forced to Kill - Emmy Ellis.epub": 570257, "Forced to Kill - Emmy Ellis.mobi": 263603, "Forced to Kill. Emmy Ellis. The Dead Speak Series. Book 01.jpg": 52297}
创建时间: 2020-03-04 03:57:58 大小:1.37 MB 文件数量:4 热度:5 最近下载:2025-09-20 05:33:06
    ... , England01.flac": 24151638, "Dead Famous People - 1990-01-24 London, England02.flac ... ": 15949495, "Dead Famous People - 1990-01-24 London, England03.flac ... ": 11722119, "Dead Famous People - 1990-01-24 London, England04.flac ...
创建时间: 2020-03-06 05:32:46 大小:192.21 MB 文件数量:14 热度:7 最近下载:2025-09-22 12:36:01
    ... THD.DD51.Mysilu.ts": 18478914988, "Dead.Space.Aftermath.2011.BD.REMUX ... DD51.Mysilu.ts.par2": 57052, "Dead.Space.Aftermath.2011.BD.REMUX ... ts.vol0+1.PAR2": 6585120, "Dead.Space.Aftermath.2011.BD.REMUX ... ts.vol1+2.PAR2": 13170164, "Dead.Space.Aftermath.2011.BD.REMUX ...
创建时间: 2020-03-07 03:30:37 大小:17.24 GB 文件数量:5 热度:9 最近下载:2025-01-17 20:53:05
    ... .IdeaFilm.avi": 559427584, "The.Dead.Lands.S01E02.WEB-DLRip.400p ... .IdeaFilm.avi": 582598656, "The.Dead.Lands.S01E03.WEB-DLRip.400p ... .IdeaFilm.avi": 595038208, "The.Dead.Lands.S01E04.WEB-DLRip.400p ... .IdeaFilm.avi": 561491968, "The.Dead.Lands.S01E05.WEB-DLRip.400p ...
创建时间: 2020-03-07 22:01:16 大小:4.23 GB 文件数量:8 热度:3 最近下载:2024-10-21 06:05:01
    ... torrentgalaxy.to .txt": 585, "Dead Of Winter - S01e03 - ... Mass - GR.mkv": 287377765, "Dead Of Winter - S01e05 - Last Christmas ... - GR.mkv": 317028721, "Dead Of Winter - S01e01 - The Empty ... Winter - GR.mkv": 324645027, "Dead Of Winter - S01e04 - Widows ...
创建时间: 2020-03-22 09:48:06 大小:1.72 GB 文件数量:8 热度:3 最近下载:2023-12-28 11:47:06